Terminal Aerodrome Forecast
Issued by NWS Tampa Bay Area, FL

Home | Current Version | Previous Version | Text Only | Print | Product List | Glossary On
Versions: 1 2 3 4 5 6 7 8 9 10 11 12 13 14 15 16 17 18 19 20 21 22 23 24
000
FTUS42 KTBW 271100
TAFTPA
TAF
KTPA 271132Z 2712/2812 03004KT P6SM OVC020
     FM271600 06005KT P6SM SCT015 OVC035
     FM271900 26005KT P6SM SCT035 BKN050
     FM280200 04003KT P6SM SCT035 BKN050
     FM280900 VRB02KT 5SM BR SCT005 BKN010=

USA.gov is the U.S. government's official web portal to all federal, state and local government web resources and services.